Terminal Aerodrome Forecast
Issued by NWS

Home | Current Version | Previous Version | Text Only | Print | Product List | Glossary On
Versions: 1 2 3 4 5 6 7 8 9 10 11 12 13 14 15 16 17 18
529
FTUS41 KCAR 251721
TAFPQI
TAF
KPQI 251721Z 2518/2618 VRB03KT P6SM SCT250
     FM252000 16008KT P6SM OVC050
     FM260100 16008KT 6SM -RA BR OVC020
     FM260700 14008KT 5SM -RA BR OVC005=

USA.gov is the U.S. government's official web portal to all federal, state and local government web resources and services.